Creek Data

    Home     View Charts     View Raw Data     Messages

ID Distance Battery Voltage Battery Current Internal Temp Internal Humidity External Temp Solar Input rssi snr Time Stamp Record
34032 15.0 4.00 5 58 37 56 5.1 -75 7 03/04/2025 10:45 AM 15748
34031 15.0 4.00 5 56 38 56 5.1 -75 8 03/04/2025 10:30 AM 15747
34030 15.0 3.99 0 56 37 55 5.1 -76 8 03/04/2025 10:15 AM 15746
34029 15.0 4.00 0 55 37 54 5.1 -76 8 03/04/2025 10:00 AM 15745
34028 15.0 4.00 0 55 37 54 5.1 -76 8 03/04/2025 09:45 AM 15744
34027 15.0 4.00 0 54 37 53 5.1 -74 7 03/04/2025 09:30 AM 15743
34026 15.0 4.04 0 53 37 52 5.1 -75 8 03/04/2025 09:15 AM 15742
34025 15.0 3.99 5 53 36 52 5.1 -75 8 03/04/2025 09:00 AM 15741
34024 15.0 3.99 5 52 36 52 5.1 -77 8 03/04/2025 08:45 AM 15740
34023 15.0 4.08 44 51 36 51 4.5 -76 8 03/04/2025 08:30 AM 15739
34022 15.0 4.07 56 50 36 50 4.5 -76 8 03/04/2025 08:15 AM 15738
34021 15.0 4.03 22 49 36 50 4.5 -77 8 03/04/2025 08:00 AM 15737
34020 15.0 4.03 8 49 36 49 4.5 -76 7 03/04/2025 07:45 AM 15736
34019 15.0 3.97 14 47 36 48 4.5 -77 8 03/04/2025 07:30 AM 15735
34018 14.9 3.91 0 46 37 48 4.5 -76 8 03/04/2025 07:15 AM 15734
34017 14.9 3.97 0 45 37 47 4.5 -75 8 03/04/2025 07:00 AM 15733
34016 14.9 3.90 -6 44 37 46 4.5 -76 8 03/04/2025 06:45 AM 15732
34015 14.9 3.89 -10 43 38 45 3.2 -75 7 03/04/2025 06:30 AM 15731
34014 14.9 3.91 -5 42 38 44 1.7 -77 8 03/04/2025 06:15 AM 15730
34013 14.9 3.91 -5 41 38 42 0 -77 8 03/04/2025 06:00 AM 15729
34012 14.9 3.91 -5 41 38 43 0 -76 8 03/04/2025 05:45 AM 15728
34011 14.9 3.91 -5 41 38 42 0 -77 8 03/04/2025 05:30 AM 15727
34010 14.9 3.91 -5 41 38 43 0 -77 8 03/04/2025 05:15 AM 15726
34009 14.9 3.91 -5 41 38 43 0 -77 8 03/04/2025 05:00 AM 15725
34008 14.9 3.97 -5 41 38 43 0 -77 8 03/04/2025 04:45 AM 15724